Aérodrome :
LOGIN :

S'inscrire | Disclaimer

   EN    FR    IT 

 










Légende :    VFR   VFR Marginal   IFR   IFR Intensif   IFR Très Intensif
Visi : 
Plafond : 
>= 8 km
>= 3000ft
5 à 8 km
1000 à 3000 ft
1500m à 5 km
500 à 1000 ft
800 à 1500m
200 à 500 ft
< 800m
< 200 ft
Symboles :   Orages  Brouillard  Fortes neiges  Fortes précipitations  Vent > 20 kt
SIGMETs :   Divers  Orages  Givrage  Turbulence  Onde Orograph.  Cendres Volcan.







- Altitude de l'aérodrome : 220 ft
- Code IATA : CWL
- Voir les cartes d'approche


EGFF - Cardiff Rhoose

DERNIER METAR :
  • 200150Z AUTO 24011KT 9999 BKN028 OVC033 11/09 Q1019

METARs EXPIRÉS :
  • 200120Z AUTO 25014KT 9999 SCT020 BKN025 OVC031 11/09 Q1019
  • 200050Z AUTO 24009KT 9999 BKN020 OVC027 11/09 Q1020
  • 200020Z AUTO 22008KT 9999 BKN022 OVC029 11/09 Q1020
  • 192350Z AUTO 24009KT 9999 FEW015 OVC028 11/09 Q1021
  • 192320Z AUTO 24010KT 9999 OVC030 11/09 Q1021

TAF TAF EGFF
Valide du 20 à 00h jusqu'au 21 à 00h UTC


192253Z 2000/2024 20012KT 9999 SCT010
TEMPO 2000/2024 9000 -RA BKN010
PROB30
TEMPO 2000/2009 4000 RADZ BKN004
PROB30
TEMPO 2004/2021 25018G28KT
BECMG 2012/2015 26014KT
TEMPO 2012/2024 4000 RADZ BKN009
ATIS : +44 1446 729 319
Pas de NOTAMs connus pour ce terrain.



MET'MAP, la Météo Aéronautique d'un coup d'oeil ! - Copyright ORBIFLY Décembre 2007 - Disclaimer

ORBIFLY MET'MAP TEAM :

Programmation & Développement : Alexandra Zaïnal
Conception & Développement : Baudouin d'Aumeries
Co-Programmation & Développement : Marc-Olivier Méhu
Soutien technique & logistique : Manuel Goepfert

Contact : metmap@orbifly.com




SOURCES & CREDITS :

   NOAA